sensor_id;sensor_type;location;lat;lon;timestamp;temperature;humidity
1614;DHT22;800;48.824;9.346;2023-04-24T00:01:26;17.10;56.50
1614;DHT22;800;48.824;9.346;2023-04-24T00:03:52;16.90;56.70
1614;DHT22;800;48.824;9.346;2023-04-24T00:06:17;17.20;56.70
1614;DHT22;800;48.824;9.346;2023-04-24T00:08:43;17.30;56.30
1614;DHT22;800;48.824;9.346;2023-04-24T00:11:09;17.40;56.10
1614;DHT22;800;48.824;9.346;2023-04-24T00:13:35;17.50;56.30
1614;DHT22;800;48.824;9.346;2023-04-24T00:16:00;17.70;56.30
1614;DHT22;800;48.824;9.346;2023-04-24T00:18:26;17.80;55.80
1614;DHT22;800;48.824;9.346;2023-04-24T00:20:52;17.80;55.20
1614;DHT22;800;48.824;9.346;2023-04-24T00:23:17;17.80;55.40
1614;DHT22;800;48.824;9.346;2023-04-24T00:25:43;17.90;55.20
1614;DHT22;800;48.824;9.346;2023-04-24T00:28:08;17.90;54.90
1614;DHT22;800;48.824;9.346;2023-04-24T00:30:34;17.90;55.70
1614;DHT22;800;48.824;9.346;2023-04-24T00:32:59;17.80;55.00
1614;DHT22;800;48.824;9.346;2023-04-24T00:35:25;17.90;55.30
1614;DHT22;800;48.824;9.346;2023-04-24T00:37:50;17.90;55.20
1614;DHT22;800;48.824;9.346;2023-04-24T00:40:16;17.70;54.60
1614;DHT22;800;48.824;9.346;2023-04-24T00:42:43;17.80;55.00
1614;DHT22;800;48.824;9.346;2023-04-24T00:45:09;17.90;55.30
1614;DHT22;800;48.824;9.346;2023-04-24T00:47:35;17.90;55.20
1614;DHT22;800;48.824;9.346;2023-04-24T00:50:05;17.80;54.90
1614;DHT22;800;48.824;9.346;2023-04-24T00:52:31;17.90;54.90
1614;DHT22;800;48.824;9.346;2023-04-24T00:54:58;17.80;54.70
1614;DHT22;800;48.824;9.346;2023-04-24T00:57:24;17.60;54.70
1614;DHT22;800;48.824;9.346;2023-04-24T00:59:51;17.60;55.20
1614;DHT22;800;48.824;9.346;2023-04-24T01:02:17;17.70;55.00
1614;DHT22;800;48.824;9.346;2023-04-24T01:04:43;17.90;54.90
1614;DHT22;800;48.824;9.346;2023-04-24T01:07:09;17.90;54.90
1614;DHT22;800;48.824;9.346;2023-04-24T01:09:38;17.90;54.90
1614;DHT22;800;48.824;9.346;2023-04-24T01:12:05;17.90;54.80
1614;DHT22;800;48.824;9.346;2023-04-24T01:14:31;18.00;54.90
1614;DHT22;800;48.824;9.346;2023-04-24T01:16:58;17.80;54.20
1614;DHT22;800;48.824;9.346;2023-04-24T01:19:23;17.70;54.60
1614;DHT22;800;48.824;9.346;2023-04-24T01:21:51;17.70;54.90
1614;DHT22;800;48.824;9.346;2023-04-24T01:24:19;17.80;54.70
1614;DHT22;800;48.824;9.346;2023-04-24T01:26:45;17.70;54.50
1614;DHT22;800;48.824;9.346;2023-04-24T01:29:11;17.50;54.70
1614;DHT22;800;48.824;9.346;2023-04-24T01:31:38;17.30;55.40
1614;DHT22;800;48.824;9.346;2023-04-24T01:34:05;17.20;55.60
1614;DHT22;800;48.824;9.346;2023-04-24T01:36:32;17.20;55.70
1614;DHT22;800;48.824;9.346;2023-04-24T01:38:58;17.30;55.80
1614;DHT22;800;48.824;9.346;2023-04-24T01:41:24;17.20;55.40
1614;DHT22;800;48.824;9.346;2023-04-24T01:43:50;17.20;55.30
1614;DHT22;800;48.824;9.346;2023-04-24T01:46:16;17.20;55.60
1614;DHT22;800;48.824;9.346;2023-04-24T01:48:42;17.10;55.70
1614;DHT22;800;48.824;9.346;2023-04-24T01:51:08;17.00;56.10
1614;DHT22;800;48.824;9.346;2023-04-24T01:53:33;16.90;56.30
1614;DHT22;800;48.824;9.346;2023-04-24T01:55:59;16.70;56.20
1614;DHT22;800;48.824;9.346;2023-04-24T01:58:25;16.80;56.80
1614;DHT22;800;48.824;9.346;2023-04-24T02:00:51;16.60;56.90
1614;DHT22;800;48.824;9.346;2023-04-24T02:03:17;16.70;56.80
1614;DHT22;800;48.824;9.346;2023-04-24T02:05:45;16.60;57.10
1614;DHT22;800;48.824;9.346;2023-04-24T02:08:11;16.60;57.40
1614;DHT22;800;48.824;9.346;2023-04-24T02:10:37;16.70;57.30
1614;DHT22;800;48.824;9.346;2023-04-24T02:13:02;16.60;57.20
1614;DHT22;800;48.824;9.346;2023-04-24T02:15:28;16.50;57.60
1614;DHT22;800;48.824;9.346;2023-04-24T02:17:53;16.50;57.60
1614;DHT22;800;48.824;9.346;2023-04-24T02:20:19;16.60;57.30
1614;DHT22;800;48.824;9.346;2023-04-24T02:22:44;16.70;57.10
1614;DHT22;800;48.824;9.346;2023-04-24T02:25:10;16.80;56.80
1614;DHT22;800;48.824;9.346;2023-04-24T02:27:36;16.80;56.80
1614;DHT22;800;48.824;9.346;2023-04-24T02:30:01;16.80;56.60
1614;DHT22;800;48.824;9.346;2023-04-24T02:32:28;16.60;56.90
1614;DHT22;800;48.824;9.346;2023-04-24T02:34:53;16.70;57.00
1614;DHT22;800;48.824;9.346;2023-04-24T02:37:19;16.60;56.60
1614;DHT22;800;48.824;9.346;2023-04-24T02:39:44;16.60;56.80
1614;DHT22;800;48.824;9.346;2023-04-24T02:42:10;16.70;56.50
1614;DHT22;800;48.824;9.346;2023-04-24T02:44:36;16.70;56.60
1614;DHT22;800;48.824;9.346;2023-04-24T02:47:01;16.70;57.50
1614;DHT22;800;48.824;9.346;2023-04-24T02:49:27;16.60;57.10
1614;DHT22;800;48.824;9.346;2023-04-24T02:51:52;16.70;57.00
1614;DHT22;800;48.824;9.346;2023-04-24T02:54:18;16.70;56.90
1614;DHT22;800;48.824;9.346;2023-04-24T02:56:43;16.50;57.20
1614;DHT22;800;48.824;9.346;2023-04-24T02:59:09;16.50;57.90
1614;DHT22;800;48.824;9.346;2023-04-24T03:01:35;16.50;58.40
1614;DHT22;800;48.824;9.346;2023-04-24T03:04:01;16.50;59.20
1614;DHT22;800;48.824;9.346;2023-04-24T03:06:27;16.40;59.90
1614;DHT22;800;48.824;9.346;2023-04-24T03:08:52;16.10;60.60
1614;DHT22;800;48.824;9.346;2023-04-24T03:11:18;16.00;61.60
1614;DHT22;800;48.824;9.346;2023-04-24T03:13:44;16.00;62.30
1614;DHT22;800;48.824;9.346;2023-04-24T03:16:10;16.10;61.90
1614;DHT22;800;48.824;9.346;2023-04-24T03:18:35;16.30;61.40
1614;DHT22;800;48.824;9.346;2023-04-24T03:21:01;16.30;60.80
1614;DHT22;800;48.824;9.346;2023-04-24T03:23:26;16.20;60.90
1614;DHT22;800;48.824;9.346;2023-04-24T03:25:52;16.40;60.60
1614;DHT22;800;48.824;9.346;2023-04-24T03:28:17;16.50;60.20
1614;DHT22;800;48.824;9.346;2023-04-24T03:30:43;16.50;59.90
1614;DHT22;800;48.824;9.346;2023-04-24T03:33:09;16.70;59.80
1614;DHT22;800;48.824;9.346;2023-04-24T03:35:35;16.70;59.50
1614;DHT22;800;48.824;9.346;2023-04-24T03:38:01;16.60;59.40
1614;DHT22;800;48.824;9.346;2023-04-24T03:40:27;16.60;59.40
1614;DHT22;800;48.824;9.346;2023-04-24T03:42:54;16.40;59.30
1614;DHT22;800;48.824;9.346;2023-04-24T03:45:20;16.30;60.00
1614;DHT22;800;48.824;9.346;2023-04-24T03:47:45;16.20;60.40
1614;DHT22;800;48.824;9.346;2023-04-24T03:50:11;16.30;60.70
1614;DHT22;800;48.824;9.346;2023-04-24T03:52:37;16.40;60.20
1614;DHT22;800;48.824;9.346;2023-04-24T03:55:02;16.50;60.10
1614;DHT22;800;48.824;9.346;2023-04-24T03:57:28;16.60;60.00
1614;DHT22;800;48.824;9.346;2023-04-24T03:59:53;16.50;59.90
1614;DHT22;800;48.824;9.346;2023-04-24T04:02:19;16.60;59.80
1614;DHT22;800;48.824;9.346;2023-04-24T04:04:45;16.60;59.70
1614;DHT22;800;48.824;9.346;2023-04-24T04:07:10;16.60;59.30
1614;DHT22;800;48.824;9.346;2023-04-24T04:09:36;16.70;59.60
1614;DHT22;800;48.824;9.346;2023-04-24T04:12:02;16.70;59.40
1614;DHT22;800;48.824;9.346;2023-04-24T04:14:28;16.80;59.20
1614;DHT22;800;48.824;9.346;2023-04-24T04:16:54;16.80;59.10
1614;DHT22;800;48.824;9.346;2023-04-24T04:19:19;16.80;59.10
1614;DHT22;800;48.824;9.346;2023-04-24T04:21:45;16.70;59.10
1614;DHT22;800;48.824;9.346;2023-04-24T04:24:11;16.60;59.20
1614;DHT22;800;48.824;9.346;2023-04-24T04:26:37;16.50;59.80
1614;DHT22;800;48.824;9.346;2023-04-24T04:29:03;16.40;60.00
1614;DHT22;800;48.824;9.346;2023-04-24T04:31:29;16.40;60.20
1614;DHT22;800;48.824;9.346;2023-04-24T04:33:55;16.00;61.20
1614;DHT22;800;48.824;9.346;2023-04-24T04:36:21;16.00;62.00
1614;DHT22;800;48.824;9.346;2023-04-24T04:38:46;15.70;62.20
1614;DHT22;800;48.824;9.346;2023-04-24T04:41:12;15.70;64.30
1614;DHT22;800;48.824;9.346;2023-04-24T04:43:38;15.40;63.40
1614;DHT22;800;48.824;9.346;2023-04-24T04:46:05;14.90;64.70
1614;DHT22;800;48.824;9.346;2023-04-24T04:48:33;14.80;65.20
1614;DHT22;800;48.824;9.346;2023-04-24T04:50:59;14.60;63.60
1614;DHT22;800;48.824;9.346;2023-04-24T04:53:24;14.80;64.30
1614;DHT22;800;48.824;9.346;2023-04-24T04:55:51;15.10;64.80
1614;DHT22;800;48.824;9.346;2023-04-24T04:58:17;15.10;63.80
1614;DHT22;800;48.824;9.346;2023-04-24T05:00:43;15.30;63.80
1614;DHT22;800;48.824;9.346;2023-04-24T05:03:09;15.20;62.10
1614;DHT22;800;48.824;9.346;2023-04-24T05:05:35;15.30;63.10
1614;DHT22;800;48.824;9.346;2023-04-24T05:08:00;15.30;62.90
1614;DHT22;800;48.824;9.346;2023-04-24T05:10:26;15.50;62.20
1614;DHT22;800;48.824;9.346;2023-04-24T05:12:52;15.40;61.00
1614;DHT22;800;48.824;9.346;2023-04-24T05:15:17;15.50;61.00
1614;DHT22;800;48.824;9.346;2023-04-24T05:17:43;15.70;60.60
1614;DHT22;800;48.824;9.346;2023-04-24T05:20:08;15.90;60.20
1614;DHT22;800;48.824;9.346;2023-04-24T05:22:35;15.80;59.30
1614;DHT22;800;48.824;9.346;2023-04-24T05:25:01;15.70;59.70
1614;DHT22;800;48.824;9.346;2023-04-24T05:27:27;15.80;59.50
1614;DHT22;800;48.824;9.346;2023-04-24T05:29:53;15.90;59.40
1614;DHT22;800;48.824;9.346;2023-04-24T05:32:19;15.80;59.00
1614;DHT22;800;48.824;9.346;2023-04-24T05:34:44;15.70;59.00
1614;DHT22;800;48.824;9.346;2023-04-24T05:37:10;15.60;58.80
1614;DHT22;800;48.824;9.346;2023-04-24T05:39:36;15.70;58.90
1614;DHT22;800;48.824;9.346;2023-04-24T05:42:02;15.60;58.70
1614;DHT22;800;48.824;9.346;2023-04-24T05:44:28;15.40;59.30
1614;DHT22;800;48.824;9.346;2023-04-24T05:46:54;15.60;59.60
1614;DHT22;800;48.824;9.346;2023-04-24T05:49:21;15.60;59.60
1614;DHT22;800;48.824;9.346;2023-04-24T05:51:47;15.80;59.40
1614;DHT22;800;48.824;9.346;2023-04-24T05:54:12;15.70;58.90
1614;DHT22;800;48.824;9.346;2023-04-24T05:56:39;15.80;58.90
1614;DHT22;800;48.824;9.346;2023-04-24T05:59:05;16.00;58.90
1614;DHT22;800;48.824;9.346;2023-04-24T06:01:30;16.00;58.50
1614;DHT22;800;48.824;9.346;2023-04-24T06:03:57;15.90;58.50
1614;DHT22;800;48.824;9.346;2023-04-24T06:06:23;15.80;58.90
1614;DHT22;800;48.824;9.346;2023-04-24T06:08:49;15.80;59.10
1614;DHT22;800;48.824;9.346;2023-04-24T06:11:15;15.80;58.70
1614;DHT22;800;48.824;9.346;2023-04-24T06:13:41;15.80;58.60
1614;DHT22;800;48.824;9.346;2023-04-24T06:16:06;16.00;58.60
1614;DHT22;800;48.824;9.346;2023-04-24T06:18:32;16.20;58.20
1614;DHT22;800;48.824;9.346;2023-04-24T06:20:57;16.30;57.40
1614;DHT22;800;48.824;9.346;2023-04-24T06:23:23;16.20;57.20
1614;DHT22;800;48.824;9.346;2023-04-24T06:25:49;16.00;57.40
1614;DHT22;800;48.824;9.346;2023-04-24T06:28:15;16.00;57.50
1614;DHT22;800;48.824;9.346;2023-04-24T06:30:40;16.10;57.50
1614;DHT22;800;48.824;9.346;2023-04-24T06:33:06;16.40;57.40
1614;DHT22;800;48.824;9.346;2023-04-24T06:35:32;16.50;57.10
1614;DHT22;800;48.824;9.346;2023-04-24T06:37:57;16.60;56.50
1614;DHT22;800;48.824;9.346;2023-04-24T06:40:23;16.80;56.80
1614;DHT22;800;48.824;9.346;2023-04-24T06:42:48;16.90;54.70
1614;DHT22;800;48.824;9.346;2023-04-24T06:45:14;16.90;54.90
1614;DHT22;800;48.824;9.346;2023-04-24T06:47:39;17.10;54.60
1614;DHT22;800;48.824;9.346;2023-04-24T06:50:06;17.20;54.20
1614;DHT22;800;48.824;9.346;2023-04-24T06:52:32;17.30;53.70
1614;DHT22;800;48.824;9.346;2023-04-24T06:55:04;17.40;53.20
1614;DHT22;800;48.824;9.346;2023-04-24T06:57:30;17.50;54.10
1614;DHT22;800;48.824;9.346;2023-04-24T06:59:56;17.20;53.40
1614;DHT22;800;48.824;9.346;2023-04-24T07:02:22;17.20;53.80
1614;DHT22;800;48.824;9.346;2023-04-24T07:04:48;17.10;53.20
1614;DHT22;800;48.824;9.346;2023-04-24T07:07:13;16.90;53.00
1614;DHT22;800;48.824;9.346;2023-04-24T07:09:40;16.90;53.70
1614;DHT22;800;48.824;9.346;2023-04-24T07:12:08;16.90;53.20
1614;DHT22;800;48.824;9.346;2023-04-24T07:14:34;16.70;53.00
1614;DHT22;800;48.824;9.346;2023-04-24T07:17:00;16.50;52.20
1614;DHT22;800;48.824;9.346;2023-04-24T07:19:26;16.30;54.50
1614;DHT22;800;48.824;9.346;2023-04-24T07:21:52;16.50;54.30
1614;DHT22;800;48.824;9.346;2023-04-24T07:24:18;16.50;54.40
1614;DHT22;800;48.824;9.346;2023-04-24T07:26:44;16.80;53.70
1614;DHT22;800;48.824;9.346;2023-04-24T07:29:12;16.90;53.40
1614;DHT22;800;48.824;9.346;2023-04-24T07:31:38;17.00;52.60
1614;DHT22;800;48.824;9.346;2023-04-24T07:34:04;17.20;52.30
1614;DHT22;800;48.824;9.346;2023-04-24T07:36:29;17.00;52.20
1614;DHT22;800;48.824;9.346;2023-04-24T07:38:55;16.90;52.90
1614;DHT22;800;48.824;9.346;2023-04-24T07:41:22;16.90;54.10
1614;DHT22;800;48.824;9.346;2023-04-24T07:43:49;16.80;53.40
1614;DHT22;800;48.824;9.346;2023-04-24T07:46:15;16.70;53.70
1614;DHT22;800;48.824;9.346;2023-04-24T07:48:40;16.50;52.70
1614;DHT22;800;48.824;9.346;2023-04-24T07:51:06;16.60;53.30
1614;DHT22;800;48.824;9.346;2023-04-24T07:53:32;16.20;51.70
1614;DHT22;800;48.824;9.346;2023-04-24T07:55:57;15.90;50.90
1614;DHT22;800;48.824;9.346;2023-04-24T07:58:23;15.80;50.90
1614;DHT22;800;48.824;9.346;2023-04-24T08:00:49;15.80;50.40
1614;DHT22;800;48.824;9.346;2023-04-24T08:03:14;15.70;50.40
1614;DHT22;800;48.824;9.346;2023-04-24T08:05:43;15.60;50.00
1614;DHT22;800;48.824;9.346;2023-04-24T08:08:09;15.50;49.30
1614;DHT22;800;48.824;9.346;2023-04-24T08:10:34;15.50;49.90
1614;DHT22;800;48.824;9.346;2023-04-24T08:13:00;15.40;49.50
1614;DHT22;800;48.824;9.346;2023-04-24T08:15:27;15.30;48.80
1614;DHT22;800;48.824;9.346;2023-04-24T08:17:52;15.20;49.00
1614;DHT22;800;48.824;9.346;2023-04-24T08:20:18;15.20;47.70
1614;DHT22;800;48.824;9.346;2023-04-24T08:22:44;15.10;47.80
1614;DHT22;800;48.824;9.346;2023-04-24T08:25:12;15.00;48.00
1614;DHT22;800;48.824;9.346;2023-04-24T08:27:38;15.20;48.00
1614;DHT22;800;48.824;9.346;2023-04-24T08:30:05;15.10;47.30
1614;DHT22;800;48.824;9.346;2023-04-24T08:32:30;15.10;48.10
1614;DHT22;800;48.824;9.346;2023-04-24T08:34:56;15.20;48.30
1614;DHT22;800;48.824;9.346;2023-04-24T08:37:23;15.40;48.00
1614;DHT22;800;48.824;9.346;2023-04-24T08:39:52;15.60;47.50
1614;DHT22;800;48.824;9.346;2023-04-24T08:42:18;15.50;46.80
1614;DHT22;800;48.824;9.346;2023-04-24T08:44:44;15.60;48.60
1614;DHT22;800;48.824;9.346;2023-04-24T08:47:11;16.00;50.40
1614;DHT22;800;48.824;9.346;2023-04-24T08:49:38;16.50;50.40
1614;DHT22;800;48.824;9.346;2023-04-24T08:52:04;16.80;49.60
1614;DHT22;800;48.824;9.346;2023-04-24T08:54:31;16.90;48.20
1614;DHT22;800;48.824;9.346;2023-04-24T08:57:01;17.10;48.30
1614;DHT22;800;48.824;9.346;2023-04-24T08:59:28;17.20;48.20
1614;DHT22;800;48.824;9.346;2023-04-24T09:01:55;17.10;47.30
1614;DHT22;800;48.824;9.346;2023-04-24T09:04:22;16.90;47.00
1614;DHT22;800;48.824;9.346;2023-04-24T09:06:50;16.60;47.20
1614;DHT22;800;48.824;9.346;2023-04-24T09:09:17;16.60;47.60
1614;DHT22;800;48.824;9.346;2023-04-24T09:11:43;16.50;47.10
1614;DHT22;800;48.824;9.346;2023-04-24T09:14:09;16.60;47.70
1614;DHT22;800;48.824;9.346;2023-04-24T09:16:36;16.40;46.80
1614;DHT22;800;48.824;9.346;2023-04-24T09:19:02;16.30;46.50
1614;DHT22;800;48.824;9.346;2023-04-24T09:21:33;16.20;46.90
1614;DHT22;800;48.824;9.346;2023-04-24T09:24:04;16.20;46.80
1614;DHT22;800;48.824;9.346;2023-04-24T09:26:31;16.10;46.40
1614;DHT22;800;48.824;9.346;2023-04-24T09:28:58;16.30;47.40
1614;DHT22;800;48.824;9.346;2023-04-24T09:31:27;16.20;46.90
1614;DHT22;800;48.824;9.346;2023-04-24T09:36:30;15.60;48.00
1614;DHT22;800;48.824;9.346;2023-04-24T09:39:03;15.30;48.70
1614;DHT22;800;48.824;9.346;2023-04-24T09:41:32;15.00;50.20
1614;DHT22;800;48.824;9.346;2023-04-24T09:47:00;14.90;51.00
1614;DHT22;800;48.824;9.346;2023-04-24T09:49:32;14.90;51.90
1614;DHT22;800;48.824;9.346;2023-04-24T09:52:07;15.10;51.70
1614;DHT22;800;48.824;9.346;2023-04-24T09:54:33;15.10;51.40
1614;DHT22;800;48.824;9.346;2023-04-24T09:56:59;15.40;51.60
1614;DHT22;800;48.824;9.346;2023-04-24T09:59:26;15.30;50.80
1614;DHT22;800;48.824;9.346;2023-04-24T10:01:51;15.30;50.80
1614;DHT22;800;48.824;9.346;2023-04-24T10:06:44;15.50;49.70
1614;DHT22;800;48.824;9.346;2023-04-24T10:09:10;15.40;49.50
1614;DHT22;800;48.824;9.346;2023-04-24T10:11:37;15.40;49.00
1614;DHT22;800;48.824;9.346;2023-04-24T10:14:04;15.40;49.20
1614;DHT22;800;48.824;9.346;2023-04-24T10:16:31;15.50;48.00
1614;DHT22;800;48.824;9.346;2023-04-24T10:18:59;15.60;48.00
1614;DHT22;800;48.824;9.346;2023-04-24T10:21:26;15.80;48.40
1614;DHT22;800;48.824;9.346;2023-04-24T10:23:52;15.90;47.00
1614;DHT22;800;48.824;9.346;2023-04-24T10:26:19;16.10;46.30
1614;DHT22;800;48.824;9.346;2023-04-24T10:28:46;16.20;46.00
1614;DHT22;800;48.824;9.346;2023-04-24T10:31:13;16.20;44.80
1614;DHT22;800;48.824;9.346;2023-04-24T10:33:41;16.30;46.00
1614;DHT22;800;48.824;9.346;2023-04-24T10:36:09;16.60;46.10
1614;DHT22;800;48.824;9.346;2023-04-24T10:38:37;16.70;43.30
1614;DHT22;800;48.824;9.346;2023-04-24T10:41:08;16.70;43.40
1614;DHT22;800;48.824;9.346;2023-04-24T10:43:35;17.00;42.80
1614;DHT22;800;48.824;9.346;2023-04-24T10:46:02;17.20;41.50
1614;DHT22;800;48.824;9.346;2023-04-24T10:48:28;17.20;41.10
1614;DHT22;800;48.824;9.346;2023-04-24T10:50:54;17.10;41.90
1614;DHT22;800;48.824;9.346;2023-04-24T10:53:22;17.00;41.30
1614;DHT22;800;48.824;9.346;2023-04-24T10:58:23;15.90;42.70
1614;DHT22;800;48.824;9.346;2023-04-24T11:00:57;15.90;42.40
1614;DHT22;800;48.824;9.346;2023-04-24T11:03:24;15.80;43.10
1614;DHT22;800;48.824;9.346;2023-04-24T11:05:57;16.00;43.50
1614;DHT22;800;48.824;9.346;2023-04-24T11:11:03;16.30;44.20
1614;DHT22;800;48.824;9.346;2023-04-24T11:21:46;16.50;43.90
1614;DHT22;800;48.824;9.346;2023-04-24T11:29:53;16.50;43.20
1614;DHT22;800;48.824;9.346;2023-04-24T11:32:39;16.30;44.00
1614;DHT22;800;48.824;9.346;2023-04-24T11:35:13;16.00;43.80
1614;DHT22;800;48.824;9.346;2023-04-24T11:37:47;15.70;44.20
1614;DHT22;800;48.824;9.346;2023-04-24T11:40:15;15.90;44.60
1614;DHT22;800;48.824;9.346;2023-04-24T11:42:45;15.90;43.90
1614;DHT22;800;48.824;9.346;2023-04-24T11:45:12;15.80;44.20
1614;DHT22;800;48.824;9.346;2023-04-24T11:47:38;16.10;44.40
1614;DHT22;800;48.824;9.346;2023-04-24T11:50:06;16.30;44.10
1614;DHT22;800;48.824;9.346;2023-04-24T11:52:33;16.20;42.40
1614;DHT22;800;48.824;9.346;2023-04-24T11:55:02;16.30;43.20
1614;DHT22;800;48.824;9.346;2023-04-24T11:57:29;16.30;43.20
1614;DHT22;800;48.824;9.346;2023-04-24T11:59:59;16.00;43.30
1614;DHT22;800;48.824;9.346;2023-04-24T12:02:26;16.30;43.50
1614;DHT22;800;48.824;9.346;2023-04-24T12:04:53;16.30;43.80
1614;DHT22;800;48.824;9.346;2023-04-24T12:07:19;16.20;44.60
1614;DHT22;800;48.824;9.346;2023-04-24T12:09:58;15.90;46.00
1614;DHT22;800;48.824;9.346;2023-04-24T12:12:27;15.80;48.40
1614;DHT22;800;48.824;9.346;2023-04-24T12:14:54;15.70;49.50
1614;DHT22;800;48.824;9.346;2023-04-24T12:17:28;15.60;50.50
1614;DHT22;800;48.824;9.346;2023-04-24T12:19:58;15.90;51.70
1614;DHT22;800;48.824;9.346;2023-04-24T12:22:24;15.90;51.40
1614;DHT22;800;48.824;9.346;2023-04-24T12:25:03;15.90;49.30
1614;DHT22;800;48.824;9.346;2023-04-24T12:27:32;15.80;47.90
1614;DHT22;800;48.824;9.346;2023-04-24T12:30:03;15.60;47.80
1614;DHT22;800;48.824;9.346;2023-04-24T12:32:29;15.90;48.60
1614;DHT22;800;48.824;9.346;2023-04-24T12:34:56;16.20;47.20
1614;DHT22;800;48.824;9.346;2023-04-24T12:37:26;16.20;46.70
1614;DHT22;800;48.824;9.346;2023-04-24T12:42:26;16.40;45.80
1614;DHT22;800;48.824;9.346;2023-04-24T12:44:56;16.20;45.80
1614;DHT22;800;48.824;9.346;2023-04-24T12:47:24;16.00;45.40
1614;DHT22;800;48.824;9.346;2023-04-24T12:49:50;16.00;45.40
1614;DHT22;800;48.824;9.346;2023-04-24T12:52:20;15.70;44.80
1614;DHT22;800;48.824;9.346;2023-04-24T12:54:46;15.60;45.80
1614;DHT22;800;48.824;9.346;2023-04-24T12:57:12;15.70;45.80
1614;DHT22;800;48.824;9.346;2023-04-24T12:59:38;16.10;45.90
1614;DHT22;800;48.824;9.346;2023-04-24T13:02:05;16.40;45.40
1614;DHT22;800;48.824;9.346;2023-04-24T13:04:31;16.10;44.90
1614;DHT22;800;48.824;9.346;2023-04-24T13:06:57;15.90;45.70
1614;DHT22;800;48.824;9.346;2023-04-24T13:09:23;16.10;46.30
1614;DHT22;800;48.824;9.346;2023-04-24T13:11:49;16.40;45.70
1614;DHT22;800;48.824;9.346;2023-04-24T13:14:15;16.30;44.60
1614;DHT22;800;48.824;9.346;2023-04-24T13:16:41;16.20;45.70
1614;DHT22;800;48.824;9.346;2023-04-24T13:19:06;16.10;46.20
1614;DHT22;800;48.824;9.346;2023-04-24T13:21:32;15.90;49.90
1614;DHT22;800;48.824;9.346;2023-04-24T13:23:57;15.50;52.00
1614;DHT22;800;48.824;9.346;2023-04-24T13:26:23;15.60;54.60
1614;DHT22;800;48.824;9.346;2023-04-24T13:28:48;15.70;55.00
1614;DHT22;800;48.824;9.346;2023-04-24T13:31:14;15.90;55.20
1614;DHT22;800;48.824;9.346;2023-04-24T13:33:40;16.10;55.00
1614;DHT22;800;48.824;9.346;2023-04-24T13:36:06;16.30;54.70
1614;DHT22;800;48.824;9.346;2023-04-24T13:38:32;16.60;53.20
1614;DHT22;800;48.824;9.346;2023-04-24T13:40:57;16.80;51.20
1614;DHT22;800;48.824;9.346;2023-04-24T13:43:23;16.70;49.80
1614;DHT22;800;48.824;9.346;2023-04-24T13:45:48;16.70;49.80
1614;DHT22;800;48.824;9.346;2023-04-24T13:48:14;16.70;49.60
1614;DHT22;800;48.824;9.346;2023-04-24T13:50:42;16.50;49.50
1614;DHT22;800;48.824;9.346;2023-04-24T13:53:08;16.80;49.10
1614;DHT22;800;48.824;9.346;2023-04-24T13:55:33;17.00;48.70
1614;DHT22;800;48.824;9.346;2023-04-24T13:57:59;17.00;46.90
1614;DHT22;800;48.824;9.346;2023-04-24T14:00:26;17.10;46.80
1614;DHT22;800;48.824;9.346;2023-04-24T14:02:52;17.00;46.90
1614;DHT22;800;48.824;9.346;2023-04-24T14:05:18;16.90;47.10
1614;DHT22;800;48.824;9.346;2023-04-24T14:07:43;16.80;46.20
1614;DHT22;800;48.824;9.346;2023-04-24T14:10:09;16.20;47.80
1614;DHT22;800;48.824;9.346;2023-04-24T14:12:35;15.80;51.60
1614;DHT22;800;48.824;9.346;2023-04-24T14:15:01;15.50;54.40
1614;DHT22;800;48.824;9.346;2023-04-24T14:17:27;15.10;54.70
1614;DHT22;800;48.824;9.346;2023-04-24T14:19:53;15.30;55.20
1614;DHT22;800;48.824;9.346;2023-04-24T14:22:21;15.70;56.10
1614;DHT22;800;48.824;9.346;2023-04-24T14:24:47;15.50;54.20
1614;DHT22;800;48.824;9.346;2023-04-24T14:27:12;15.70;53.90
1614;DHT22;800;48.824;9.346;2023-04-24T14:29:38;15.70;53.00
1614;DHT22;800;48.824;9.346;2023-04-24T14:32:03;15.90;52.70
1614;DHT22;800;48.824;9.346;2023-04-24T14:34:29;16.20;52.80
1614;DHT22;800;48.824;9.346;2023-04-24T14:36:54;16.10;51.40
1614;DHT22;800;48.824;9.346;2023-04-24T14:39:20;16.10;51.60
1614;DHT22;800;48.824;9.346;2023-04-24T14:41:46;15.90;50.90
1614;DHT22;800;48.824;9.346;2023-04-24T14:44:11;16.00;50.80
1614;DHT22;800;48.824;9.346;2023-04-24T14:46:37;16.10;50.40
1614;DHT22;800;48.824;9.346;2023-04-24T14:49:02;16.20;50.30
1614;DHT22;800;48.824;9.346;2023-04-24T14:51:28;16.20;48.70
1614;DHT22;800;48.824;9.346;2023-04-24T14:53:53;16.30;48.60
1614;DHT22;800;48.824;9.346;2023-04-24T14:56:19;16.50;48.00
1614;DHT22;800;48.824;9.346;2023-04-24T14:58:45;16.30;48.30
1614;DHT22;800;48.824;9.346;2023-04-24T15:01:11;16.10;48.30
1614;DHT22;800;48.824;9.346;2023-04-24T15:03:36;16.10;48.40
1614;DHT22;800;48.824;9.346;2023-04-24T15:06:02;16.00;48.70
1614;DHT22;800;48.824;9.346;2023-04-24T15:08:28;16.30;48.60
1614;DHT22;800;48.824;9.346;2023-04-24T15:10:53;16.50;48.30
1614;DHT22;800;48.824;9.346;2023-04-24T15:13:19;16.60;47.80
1614;DHT22;800;48.824;9.346;2023-04-24T15:15:46;16.80;47.20
1614;DHT22;800;48.824;9.346;2023-04-24T15:18:12;17.10;47.60
1614;DHT22;800;48.824;9.346;2023-04-24T15:20:38;17.20;46.60
1614;DHT22;800;48.824;9.346;2023-04-24T15:23:10;17.30;46.10
1614;DHT22;800;48.824;9.346;2023-04-24T15:25:36;17.60;45.20
1614;DHT22;800;48.824;9.346;2023-04-24T15:28:02;17.50;45.40
1614;DHT22;800;48.824;9.346;2023-04-24T15:30:28;17.70;45.50
1614;DHT22;800;48.824;9.346;2023-04-24T15:32:54;17.70;44.60
1614;DHT22;800;48.824;9.346;2023-04-24T15:35:20;17.50;44.90
1614;DHT22;800;48.824;9.346;2023-04-24T15:37:46;17.10;45.10
1614;DHT22;800;48.824;9.346;2023-04-24T15:40:14;17.10;46.00
1614;DHT22;800;48.824;9.346;2023-04-24T15:42:41;17.20;46.00
1614;DHT22;800;48.824;9.346;2023-04-24T15:45:08;16.90;45.40
1614;DHT22;800;48.824;9.346;2023-04-24T15:47:34;16.90;45.80
1614;DHT22;800;48.824;9.346;2023-04-24T15:50:00;16.80;46.10
1614;DHT22;800;48.824;9.346;2023-04-24T15:52:26;16.80;49.00
1614;DHT22;800;48.824;9.346;2023-04-24T15:54:52;16.60;50.90
1614;DHT22;800;48.824;9.346;2023-04-24T15:57:17;16.10;50.80
1614;DHT22;800;48.824;9.346;2023-04-24T15:59:44;15.70;52.00
1614;DHT22;800;48.824;9.346;2023-04-24T16:02:12;16.00;52.70
1614;DHT22;800;48.824;9.346;2023-04-24T16:04:44;16.10;53.00
1614;DHT22;800;48.824;9.346;2023-04-24T16:07:09;16.20;51.90
1614;DHT22;800;48.824;9.346;2023-04-24T16:09:35;16.60;51.30
1614;DHT22;800;48.824;9.346;2023-04-24T16:12:01;16.60;50.60
1614;DHT22;800;48.824;9.346;2023-04-24T16:14:26;16.50;50.20
1614;DHT22;800;48.824;9.346;2023-04-24T16:16:52;16.60;49.80
1614;DHT22;800;48.824;9.346;2023-04-24T16:19:19;16.70;48.90
1614;DHT22;800;48.824;9.346;2023-04-24T16:21:45;16.70;49.00
1614;DHT22;800;48.824;9.346;2023-04-24T16:24:10;16.80;48.80
1614;DHT22;800;48.824;9.346;2023-04-24T16:26:36;17.00;48.10
1614;DHT22;800;48.824;9.346;2023-04-24T16:29:02;17.30;47.80
1614;DHT22;800;48.824;9.346;2023-04-24T16:31:27;17.30;46.90
1614;DHT22;800;48.824;9.346;2023-04-24T16:33:53;17.40;46.80
1614;DHT22;800;48.824;9.346;2023-04-24T16:36:19;17.50;46.80
1614;DHT22;800;48.824;9.346;2023-04-24T16:38:45;17.80;46.50
1614;DHT22;800;48.824;9.346;2023-04-24T16:41:10;17.50;45.90